Time;durP1;ratioP1;P1;durP2;ratioP2;P2;SDS_P1;SDS_P2;PMS_P1;PMS_P2;Temp;Humidity;BMP_temperature;BMP_pressure;BME280_temperature;BME280_humidity;BME280_pressure;Samples;Min_cycle;Max_cycle;Signal;HPM_P1;HPM_P2
2021/03/09 00:00:13;;;;;;;11.32;4.43;;;4.50;99.90;;;;;;5054802;28;20082;-73
2021/03/09 00:02:39;;;;;;;15.85;5.57;;;4.50;99.90;;;;;;5054700;28;20033;-73
2021/03/09 00:07:32;;;;;;;22.25;6.60;;;4.40;99.90;;;;;;5046757;28;20053;-73
2021/03/09 00:09:58;;;;;;;13.77;6.00;;;4.40;99.90;;;;;;5076268;22;20049;-73
2021/03/09 00:12:24;;;;;;;15.57;5.20;;;4.30;99.90;;;;;;5074381;28;20021;-73
2021/03/09 00:14:49;;;;;;;14.77;6.20;;;4.40;99.90;;;;;;5074657;28;20430;-73
2021/03/09 00:17:15;;;;;;;17.75;6.95;;;4.30;99.90;;;;;;5073013;28;20027;-73
2021/03/09 00:19:41;;;;;;;16.25;5.22;;;4.30;99.90;;;;;;5074203;28;20111;-73
2021/03/09 00:22:06;;;;;;;24.58;6.63;;;4.30;99.90;;;;;;5074323;28;20025;-73
2021/03/09 00:24:32;;;;;;;18.05;6.30;;;4.30;99.90;;;;;;5072838;28;20475;-73
2021/03/09 00:26:57;;;;;;;15.90;5.75;;;4.30;99.90;;;;;;5073985;28;20430;-74
2021/03/09 00:29:23;;;;;;;21.70;6.90;;;4.30;99.90;;;;;;5073872;28;20506;-74
2021/03/09 00:31:48;;;;;;;20.75;6.95;;;4.30;99.90;;;;;;5073742;28;20036;-73
2021/03/09 00:34:14;;;;;;;17.85;6.38;;;4.30;99.90;;;;;;5072652;28;20029;-73
2021/03/09 00:36:39;;;;;;;21.25;6.82;;;4.30;99.90;;;;;;5072316;28;20368;-74
2021/03/09 00:39:05;;;;;;;17.90;5.95;;;4.30;99.90;;;;;;5074400;28;20515;-74
2021/03/09 00:41:31;;;;;;;20.15;6.95;;;4.30;99.90;;;;;;5073428;28;20017;-73
2021/03/09 00:43:56;;;;;;;20.20;6.88;;;4.30;99.90;;;;;;5073984;28;20112;-74
2021/03/09 00:46:22;;;;;;;20.30;6.63;;;4.30;99.90;;;;;;5074065;28;20025;-73
2021/03/09 00:48:47;;;;;;;22.33;7.60;;;5.20;99.90;;;;;;5070600;28;20020;-74
2021/03/09 00:51:13;;;;;;;20.50;6.65;;;4.30;99.90;;;;;;5074040;28;20032;-73
2021/03/09 00:53:38;;;;;;;22.85;6.95;;;4.30;99.90;;;;;;5074482;28;20028;-73
2021/03/09 00:56:04;;;;;;;25.00;7.82;;;4.40;99.90;;;;;;5074297;28;20481;-73
2021/03/09 00:58:30;;;;;;;22.10;7.55;;;4.40;99.90;;;;;;5071770;28;20025;-73
2021/03/09 01:00:55;;;;;;;22.10;7.63;;;4.40;99.90;;;;;;5073929;28;20039;-74
2021/03/09 01:03:21;;;;;;;21.45;7.80;;;4.30;99.90;;;;;;5064748;28;20017;-73
2021/03/09 01:05:47;;;;;;;24.90;8.73;;;4.30;99.90;;;;;;5053602;28;20096;-74
2021/03/09 01:08:16;;;;;;;27.85;7.63;;;4.30;99.90;;;;;;5056153;28;20226;-74
2021/03/09 01:10:42;;;;;;;27.33;8.70;;;4.20;99.90;;;;;;5073536;28;20043;-73
2021/03/09 01:13:08;;;;;;;27.67;9.25;;;4.30;99.90;;;;;;5073380;28;20100;-75
2021/03/09 01:15:34;;;;;;;25.90;8.27;;;4.30;99.90;;;;;;5074009;28;20060;-74
2021/03/09 01:17:59;;;;;;;27.05;9.52;;;4.30;99.90;;;;;;5096461;22;20055;-73
2021/03/09 01:20:25;;;;;;;31.83;10.77;;;4.30;99.90;;;;;;5072354;28;20063;-73
2021/03/09 01:22:54;;;;;;;27.17;9.32;;;4.30;99.90;;;;;;5088319;22;20059;-73
2021/03/09 01:25:19;;;;;;;30.13;10.30;;;6.70;99.90;;;;;;5072547;28;20070;-73
2021/03/09 01:27:45;;;;;;;29.10;10.40;;;4.30;99.90;;;;;;5073210;28;20028;-73
2021/03/09 01:30:12;;;;;;;33.22;11.93;;;4.30;99.90;;;;;;5073818;28;20502;-73
2021/03/09 01:32:38;;;;;;;29.13;11.85;;;4.30;99.90;;;;;;5073601;28;20074;-74
2021/03/09 01:35:05;;;;;;;28.60;9.55;;;4.30;99.90;;;;;;5072673;28;20052;-73
2021/03/09 01:37:31;;;;;;;29.90;11.02;;;4.30;99.90;;;;;;5073397;28;20025;-74
2021/03/09 01:39:56;;;;;;;29.98;12.38;;;4.40;99.90;;;;;;5072181;28;20035;-73
2021/03/09 01:42:22;;;;;;;24.50;8.90;;;4.30;99.90;;;;;;5073751;28;20019;-74
2021/03/09 01:44:47;;;;;;;35.15;12.40;;;4.40;99.90;;;;;;5073621;28;20490;-73
2021/03/09 01:47:14;;;;;;;30.13;10.65;;;4.30;99.90;;;;;;5088154;22;20484;-73
2021/03/09 01:49:40;;;;;;;33.05;11.80;;;4.40;99.90;;;;;;5032514;28;20112;-73
2021/03/09 01:52:09;;;;;;;30.33;11.75;;;4.40;99.90;;;;;;5033944;28;20029;-73
2021/03/09 01:54:36;;;;;;;32.50;10.88;;;4.30;99.90;;;;;;5033560;28;20030;-73
2021/03/09 01:57:02;;;;;;;28.27;9.18;;;4.40;99.90;;;;;;5033154;28;20176;-74
2021/03/09 01:59:29;;;;;;;28.63;11.10;;;4.30;99.90;;;;;;5027555;28;20030;-74
2021/03/09 02:01:55;;;;;;;34.85;11.40;;;4.30;99.90;;;;;;5015493;28;20496;-73
2021/03/09 02:04:20;;;;;;;33.60;10.82;;;4.40;99.90;;;;;;5014255;28;20073;-73
2021/03/09 02:06:46;;;;;;;33.90;11.27;;;4.30;99.90;;;;;;5013929;28;20034;-73
2021/03/09 02:09:12;;;;;;;35.03;12.15;;;4.40;99.90;;;;;;5021118;28;20076;-73
2021/03/09 02:12:04;;;;;;;31.45;11.32;;;4.40;99.90;;;;;;5017232;28;20030;-73
2021/03/09 02:14:37;;;;;;;27.58;10.63;;;4.30;99.90;;;;;;5018743;28;20110;-73
2021/03/09 02:17:28;;;;;;;29.63;10.20;;;4.40;99.90;;;;;;5016790;28;20030;-73
2021/03/09 02:20:31;;;;;;;31.85;9.23;;;4.40;99.90;;;;;;5017277;28;20034;-73
2021/03/09 02:23:02;;;;;;;33.13;11.15;;;4.40;99.90;;;;;;5025611;28;20042;-73
2021/03/09 02:28:22;;;;;;;33.05;10.85;;;4.40;99.90;;;;;;5095397;28;20055;-73
2021/03/09 02:30:49;;;;;;;30.05;12.05;;;4.40;99.90;;;;;;5097173;28;20031;-73
2021/03/09 02:33:28;;;;;;;31.27;11.00;;;4.40;99.90;;;;;;5096754;28;20020;-72
2021/03/09 02:36:03;;;;;;;36.38;11.30;;;4.40;99.90;;;;;;5097017;28;20048;-75
2021/03/09 02:38:39;;;;;;;32.80;10.82;;;4.40;99.90;;;;;;5096903;28;20063;-73
2021/03/09 02:41:05;;;;;;;34.75;11.63;;;4.40;99.90;;;;;;5095800;28;20028;-74
2021/03/09 02:43:31;;;;;;;33.33;12.30;;;4.40;99.90;;;;;;5096544;28;20020;-74
2021/03/09 02:45:59;;;;;;;33.88;12.55;;;4.40;99.90;;;;;;5096753;28;20051;-74
2021/03/09 02:48:27;;;;;;;34.22;12.10;;;4.50;99.90;;;;;;5102409;22;20044;-73
2021/03/09 02:50:56;;;;;;;31.23;11.80;;;4.50;99.90;;;;;;5074987;28;20013;-73
2021/03/09 02:53:25;;;;;;;30.88;12.48;;;4.50;99.90;;;;;;5076384;28;20360;-74
2021/03/09 02:55:51;;;;;;;35.72;14.05;;;4.50;99.90;;;;;;5076400;28;20517;-74
2021/03/09 02:58:20;;;;;;;33.55;10.63;;;4.50;99.90;;;;;;5054921;28;20505;-73
2021/03/09 03:00:50;;;;;;;35.58;12.27;;;4.50;99.90;;;;;;5076898;22;20546;-74
2021/03/09 03:03:17;;;;;;;38.10;13.48;;;4.50;99.90;;;;;;5076625;28;20016;-74
2021/03/09 03:05:44;;;;;;;34.60;12.05;;;4.60;99.90;;;;;;5076460;28;20013;-74
2021/03/09 03:08:11;;;;;;;38.92;12.13;;;4.50;99.90;;;;;;5071070;28;20078;-74
2021/03/09 03:10:38;;;;;;;32.78;11.13;;;4.50;99.90;;;;;;5059697;28;20025;-73
2021/03/09 03:13:08;;;;;;;34.30;11.10;;;4.50;99.90;;;;;;5057577;28;20410;-73
2021/03/09 03:15:35;;;;;;;33.42;13.40;;;4.40;99.90;;;;;;5055968;28;20032;-73
2021/03/09 03:18:05;;;;;;;36.65;13.13;;;4.50;99.90;;;;;;5037599;28;20557;-73
2021/03/09 03:20:30;;;;;;;37.17;12.32;;;4.50;99.90;;;;;;5054694;28;20013;-73
2021/03/09 03:22:57;;;;;;;31.83;11.02;;;4.50;99.90;;;;;;5055324;28;20032;-73
2021/03/09 03:25:26;;;;;;;34.05;12.35;;;4.50;99.90;;;;;;5055846;28;20017;-73
2021/03/09 03:27:52;;;;;;;37.25;14.27;;;4.60;99.90;;;;;;5055294;28;20021;-73
2021/03/09 03:30:18;;;;;;;32.95;12.77;;;4.60;99.90;;;;;;5037539;28;20025;-73
2021/03/09 03:32:46;;;;;;;37.10;14.07;;;4.60;99.90;;;;;;5070226;22;20049;-73
2021/03/09 03:35:13;;;;;;;34.00;13.07;;;4.60;99.90;;;;;;5055184;28;20128;-73
2021/03/09 03:37:43;;;;;;;40.00;13.73;;;4.70;99.90;;;;;;5055083;28;20033;-73
2021/03/09 03:40:12;;;;;;;39.95;14.30;;;4.60;99.90;;;;;;5079607;22;20403;-74
2021/03/09 03:42:39;;;;;;;37.83;12.98;;;4.60;99.90;;;;;;5074120;28;20078;-74
2021/03/09 03:45:06;;;;;;;36.22;12.77;;;4.60;99.90;;;;;;5075087;28;20028;-74
2021/03/09 03:47:32;;;;;;;42.28;14.63;;;4.60;99.90;;;;;;5074541;28;20502;-74
2021/03/09 03:49:58;;;;;;;37.30;14.10;;;4.60;99.90;;;;;;5074920;28;20017;-74
2021/03/09 03:52:51;;;;;;;35.20;14.30;;;4.70;99.90;;;;;;5072997;28;20111;-75
2021/03/09 03:55:39;;;;;;;35.83;12.18;;;4.60;99.90;;;;;;5075371;28;20024;-74
2021/03/09 03:58:36;;;;;;;40.15;16.23;;;4.70;99.90;;;;;;5073023;28;20029;-74
2021/03/09 04:01:03;;;;;;;40.50;15.50;;;4.70;99.90;;;;;;5073307;28;20082;-75
2021/03/09 04:03:31;;;;;;;45.38;16.55;;;4.70;99.90;;;;;;5074526;28;20033;-74
2021/03/09 04:05:59;;;;;;;43.13;15.20;;;4.60;99.90;;;;;;5074271;28;20505;-75
2021/03/09 04:08:25;;;;;;;41.40;14.95;;;4.70;99.90;;;;;;5074502;28;20021;-75
2021/03/09 04:10:52;;;;;;;39.17;14.80;;;4.70;99.90;;;;;;5074366;28;20028;-74
2021/03/09 04:13:18;;;;;;;36.67;13.82;;;4.70;99.90;;;;;;5074644;28;20013;-74
2021/03/09 04:15:44;;;;;;;38.25;14.02;;;4.70;99.90;;;;;;5074461;28;20086;-74
2021/03/09 04:18:12;;;;;;;40.20;15.48;;;4.70;99.90;;;;;;5074141;28;20035;-74
2021/03/09 04:20:41;;;;;;;39.22;14.75;;;4.70;99.90;;;;;;5074769;28;20017;-74
2021/03/09 04:23:07;;;;;;;43.22;16.63;;;4.70;99.90;;;;;;5074454;28;20025;-74
2021/03/09 04:25:34;;;;;;;45.88;16.48;;;4.70;99.90;;;;;;5072933;28;20065;-74
2021/03/09 04:28:02;;;;;;;42.03;15.02;;;4.90;99.90;;;;;;5074310;28;20032;-74
2021/03/09 04:30:31;;;;;;;44.70;14.80;;;4.80;99.90;;;;;;5074479;28;20021;-74
2021/03/09 04:32:57;;;;;;;43.88;16.33;;;4.80;99.90;;;;;;5074168;28;20475;-74
2021/03/09 04:35:23;;;;;;;43.58;15.68;;;4.80;99.90;;;;;;5074419;28;20025;-74
2021/03/09 04:37:50;;;;;;;47.55;17.13;;;4.80;99.90;;;;;;5073934;28;20035;-73
2021/03/09 04:40:15;;;;;;;45.58;15.73;;;4.70;99.90;;;;;;5073707;28;20032;-74
2021/03/09 04:42:41;;;;;;;53.13;17.40;;;4.80;99.90;;;;;;5074401;28;20410;-74
2021/03/09 04:45:07;;;;;;;55.22;20.35;;;4.80;99.90;;;;;;5074565;28;20097;-74
2021/03/09 04:47:34;;;;;;;45.42;16.27;;;4.80;99.90;;;;;;5073578;28;20071;-74
2021/03/09 04:50:00;;;;;;;49.00;17.27;;;4.90;99.90;;;;;;5073590;28;20383;-74
2021/03/09 04:52:29;;;;;;;49.85;17.13;;;4.80;99.90;;;;;;5074607;28;20028;-74
2021/03/09 04:54:56;;;;;;;52.40;17.58;;;4.90;99.90;;;;;;5073886;28;20444;-74
2021/03/09 04:57:35;;;;;;;45.45;17.50;;;4.90;99.90;;;;;;5073401;28;20025;-74
2021/03/09 05:00:02;;;;;;;41.88;16.42;;;4.90;99.90;;;;;;5073629;28;20115;-74
2021/03/09 05:02:27;;;;;;;49.97;17.00;;;4.90;99.90;;;;;;5073398;28;20028;-74
2021/03/09 05:04:53;;;;;;;46.63;18.90;;;4.90;99.90;;;;;;5074053;28;20029;-74
2021/03/09 05:07:18;;;;;;;45.90;18.05;;;4.90;99.90;;;;;;5074130;28;20020;-74
2021/03/09 05:09:44;;;;;;;46.80;17.00;;;4.90;99.90;;;;;;5073653;28;20033;-74
2021/03/09 05:12:09;;;;;;;50.28;17.88;;;4.90;99.90;;;;;;5055971;28;20021;-74
2021/03/09 05:14:35;;;;;;;43.25;17.67;;;4.90;99.90;;;;;;5052457;28;20033;-74
2021/03/09 05:17:00;;;;;;;41.90;16.67;;;4.90;99.90;;;;;;5067410;28;20032;-74
2021/03/09 05:19:26;;;;;;;47.05;18.58;;;5.00;99.90;;;;;;5073385;28;20101;-74
2021/03/09 05:21:51;;;;;;;48.55;18.48;;;5.00;99.90;;;;;;5073342;28;20016;-74
2021/03/09 05:24:17;;;;;;;46.22;18.15;;;4.90;99.90;;;;;;5073610;28;20101;-74
2021/03/09 05:26:46;;;;;;;46.42;17.63;;;5.50;99.90;;;;;;5073423;28;20056;-75
2021/03/09 05:29:11;;;;;;;47.35;17.83;;;5.00;99.90;;;;;;5073972;28;20375;-73
2021/03/09 05:31:37;;;;;;;44.10;17.23;;;5.00;99.90;;;;;;5073429;28;20029;-73
2021/03/09 05:34:03;;;;;;;46.17;17.02;;;5.10;99.90;;;;;;5073462;28;20039;-74
2021/03/09 05:36:31;;;;;;;50.25;17.75;;;5.10;99.90;;;;;;5073213;28;20031;-74
2021/03/09 05:38:57;;;;;;;50.30;18.10;;;5.10;99.90;;;;;;5072033;28;20455;-74
2021/03/09 05:41:22;;;;;;;51.58;19.40;;;5.10;99.90;;;;;;5087877;22;20060;-74
2021/03/09 05:43:51;;;;;;;50.72;18.13;;;5.10;99.90;;;;;;5033084;28;20032;-74
2021/03/09 05:46:16;;;;;;;49.88;17.20;;;5.20;99.90;;;;;;5037094;28;20021;-73
2021/03/09 05:48:42;;;;;;;45.15;18.02;;;5.10;99.90;;;;;;5036007;28;20030;-74
2021/03/09 05:51:08;;;;;;;42.88;16.45;;;5.10;99.90;;;;;;5037032;28;20101;-74
2021/03/09 05:53:33;;;;;;;46.25;18.02;;;5.20;99.90;;;;;;5036336;28;20045;-73
2021/03/09 05:55:59;;;;;;;50.70;18.58;;;5.20;99.90;;;;;;5036915;28;20044;-74
2021/03/09 05:58:27;;;;;;;45.88;17.70;;;5.20;99.90;;;;;;5035788;28;20112;-74
2021/03/09 06:00:53;;;;;;;57.85;19.45;;;5.10;99.90;;;;;;5037381;28;20549;-74
2021/03/09 06:03:19;;;;;;;51.08;19.08;;;5.20;99.90;;;;;;5037000;28;20021;-74
2021/03/09 06:05:45;;;;;;;43.50;15.95;;;5.20;99.90;;;;;;5037337;28;20025;-75
2021/03/09 06:08:11;;;;;;;45.53;16.30;;;5.40;99.90;;;;;;5037057;28;20030;-74
2021/03/09 06:10:36;;;;;;;42.60;15.23;;;5.30;99.90;;;;;;5036822;28;20036;-74
2021/03/09 06:13:02;;;;;;;39.40;15.18;;;5.30;99.90;;;;;;5037144;28;20108;-74
2021/03/09 06:15:28;;;;;;;33.95;13.05;;;5.40;99.90;;;;;;5036834;28;20045;-74
2021/03/09 06:17:57;;;;;;;34.10;14.48;;;5.50;99.90;;;;;;5036332;28;20017;-73
2021/03/09 06:20:29;;;;;;;29.08;11.75;;;5.50;99.90;;;;;;5035094;28;20022;-74
2021/03/09 06:23:00;;;;;;;24.25;10.32;;;5.60;99.90;;;;;;5035282;28;20024;-74
2021/03/09 06:25:37;;;;;;;28.63;10.55;;;5.60;99.90;;;;;;5034977;28;20439;-74
2021/03/09 06:28:05;;;;;;;24.38;8.85;;;5.70;99.90;;;;;;5036551;28;20030;-74
2021/03/09 06:30:39;;;;;;;22.45;8.15;;;5.70;99.90;;;;;;5034994;28;20036;-74
2021/03/09 06:33:05;;;;;;;20.23;8.07;;;5.80;99.90;;;;;;5036153;28;20025;-74
2021/03/09 06:35:37;;;;;;;20.85;8.55;;;5.80;99.90;;;;;;5034937;28;20025;-74
2021/03/09 06:41:35;;;;;;;16.88;6.68;;;5.80;99.90;;;;;;5015509;28;20049;-74
2021/03/09 06:44:03;;;;;;;18.55;5.32;;;5.80;99.90;;;;;;5016704;28;20388;-74
2021/03/09 06:46:29;;;;;;;11.90;3.85;;;5.80;99.90;;;;;;4998528;28;20389;-74
2021/03/09 06:49:01;;;;;;;8.40;3.08;;;5.80;99.90;;;;;;4998403;28;20018;-75
2021/03/09 06:51:34;;;;;;;9.10;3.55;;;5.80;99.90;;;;;;4998077;28;20065;-74
2021/03/09 06:54:04;;;;;;;12.02;3.13;;;5.80;99.90;;;;;;5016169;28;20432;-74
2021/03/09 06:56:37;;;;;;;6.28;2.10;;;5.80;99.90;;;;;;5014256;28;20037;-75
2021/03/09 06:59:25;;;;;;;11.85;2.08;;;6.70;99.90;;;;;;5015568;28;20036;-74
2021/03/09 07:02:04;;;;;;;5.38;1.10;;;5.80;99.90;;;;;;5016033;28;20026;-75
2021/03/09 07:04:33;;;;;;;8.32;1.10;;;5.80;99.90;;;;;;4997895;28;20026;-74
2021/03/09 07:06:59;;;;;;;3.60;0.80;;;5.70;99.90;;;;;;5015569;28;20037;-74
2021/03/09 07:09:24;;;;;;;9.68;0.75;;;5.80;99.90;;;;;;4997624;28;20022;-75
2021/03/09 07:11:50;;;;;;;6.80;0.98;;;5.80;99.90;;;;;;4997357;28;20129;-75
2021/03/09 07:14:18;;;;;;;2.55;0.28;;;5.80;99.90;;;;;;4997259;28;20487;-75
2021/03/09 07:16:49;;;;;;;4.63;0.52;;;5.80;99.90;;;;;;5015625;28;20428;-74
2021/03/09 07:19:24;;;;;;;5.20;0.55;;;5.80;99.90;;;;;;5015505;28;20018;-74
2021/03/09 07:21:51;;;;;;;7.70;0.70;;;5.80;99.90;;;;;;4998107;28;20022;-74
2021/03/09 07:24:19;;;;;;;3.28;0.13;;;5.80;99.90;;;;;;5015338;28;20483;-73
2021/03/09 07:26:46;;;;;;;1.80;0.10;;;5.80;99.90;;;;;;5015404;28;20161;-74
2021/03/09 07:29:14;;;;;;;3.88;0.30;;;5.80;99.90;;;;;;4997644;28;20168;-74
2021/03/09 07:31:40;;;;;;;1.05;0.10;;;5.80;99.90;;;;;;4997602;28;20069;-73
2021/03/09 07:34:07;;;;;;;5.28;0.10;;;6.00;99.90;;;;;;5015367;28;20112;-72
2021/03/09 07:36:34;;;;;;;2.72;0.22;;;6.00;99.90;;;;;;5015290;28;20026;-73
2021/03/09 07:39:01;;;;;;;1.13;0.20;;;6.00;99.90;;;;;;5015481;28;20476;-73
2021/03/09 07:41:27;;;;;;;0.75;0.10;;;6.10;99.90;;;;;;4997430;28;20018;-73
2021/03/09 07:43:53;;;;;;;2.75;0.50;;;6.10;99.90;;;;;;5015033;28;20395;-72
2021/03/09 07:46:19;;;;;;;0.95;0.00;;;6.10;99.90;;;;;;5015026;28;20460;-75
2021/03/09 07:48:45;;;;;;;2.05;0.32;;;6.10;99.90;;;;;;4997409;28;20018;-73
2021/03/09 07:51:10;;;;;;;3.10;0.40;;;6.20;99.90;;;;;;5014985;28;20084;-73
2021/03/09 07:53:36;;;;;;;1.23;0.32;;;6.30;99.90;;;;;;5014889;28;20025;-74
2021/03/09 07:56:07;;;;;;;3.55;0.28;;;6.30;99.90;;;;;;4997549;28;20021;-74
2021/03/09 07:58:33;;;;;;;1.35;0.10;;;6.40;99.90;;;;;;5014838;28;20030;-74
2021/03/09 08:01:09;;;;;;;2.80;0.10;;;6.40;99.90;;;;;;5015009;28;20064;-73
2021/03/09 08:03:42;;;;;;;4.88;0.85;;;6.40;99.90;;;;;;4997088;28;20045;-75
2021/03/09 08:06:08;;;;;;;3.72;0.00;;;6.50;99.90;;;;;;5014525;28;20145;-75
2021/03/09 08:08:39;;;;;;;2.13;0.40;;;6.50;99.90;;;;;;5014691;28;20069;-73
2021/03/09 08:11:06;;;;;;;15.32;0.30;;;6.50;99.90;;;;;;5014525;28;20052;-73
2021/03/09 08:13:32;;;;;;;6.75;0.00;;;6.50;99.90;;;;;;5014817;28;20033;-73
2021/03/09 08:16:19;;;;;;;4.70;0.17;;;6.50;99.90;;;;;;5014451;28;20404;-73
2021/03/09 08:18:46;;;;;;;4.32;0.35;;;6.60;99.90;;;;;;5014470;28;20030;-73
2021/03/09 08:21:12;;;;;;;2.58;0.10;;;6.60;99.90;;;;;;5014336;28;20025;-73
2021/03/09 08:23:37;;;;;;;5.95;0.40;;;6.60;99.90;;;;;;4996758;28;20072;-74
2021/03/09 08:26:29;;;;;;;8.98;0.15;;;6.60;99.90;;;;;;5014205;28;20095;-74
2021/03/09 08:28:55;;;;;;;5.05;0.65;;;6.70;99.90;;;;;;4984126;28;20049;-73
2021/03/09 08:31:21;;;;;;;3.08;0.20;;;6.80;99.90;;;;;;5014170;28;20022;-75
2021/03/09 08:33:46;;;;;;;5.55;0.10;;;6.90;99.90;;;;;;4996741;28;20049;-74
2021/03/09 08:36:23;;;;;;;1.52;0.17;;;7.00;99.90;;;;;;5013877;28;20092;-74
2021/03/09 08:39:13;;;;;;;3.63;0.00;;;7.20;99.90;;;;;;5014193;28;20071;-75
2021/03/09 08:41:42;;;;;;;3.05;0.65;;;7.20;99.90;;;;;;5014262;28;20026;-75
2021/03/09 08:44:14;;;;;;;1.05;0.10;;;7.30;99.90;;;;;;5014345;28;20427;-75
2021/03/09 08:47:03;;;;;;;16.45;0.98;;;7.30;99.90;;;;;;5013997;28;20060;-75
2021/03/09 08:49:38;;;;;;;3.40;0.22;;;7.30;99.90;;;;;;4996380;28;20033;-75
2021/03/09 08:52:07;;;;;;;1.20;0.00;;;7.40;99.90;;;;;;5014146;28;20026;-75
2021/03/09 08:54:38;;;;;;;;;;;7.40;99.90;;;;;;4996755;28;20032;-75
2021/03/09 08:57:07;;;;;;;2.92;0.50;;;7.50;99.90;;;;;;5012487;28;19910;-75
2021/03/09 08:59:34;;;;;;;0.90;0.17;;;7.60;99.90;;;;;;5013972;28;20040;-75
2021/03/09 09:02:06;;;;;;;2.67;0.40;;;7.70;99.90;;;;;;5014396;28;20149;-75
2021/03/09 09:04:32;;;;;;;3.35;0.95;;;7.80;99.90;;;;;;4996396;28;20033;-75
2021/03/09 09:06:57;;;;;;;2.90;0.43;;;7.90;99.90;;;;;;5013889;28;20029;-75
2021/03/09 09:10:09;;;;;;;2.83;0.55;;;7.90;99.90;;;;;;5048004;22;20391;-75
2021/03/09 09:12:45;;;;;;;1.45;0.10;;;7.90;99.90;;;;;;5034896;28;20533;-74
2021/03/09 09:15:27;;;;;;;3.22;0.55;;;8.10;99.90;;;;;;5053223;28;20021;-74
2021/03/09 09:18:22;;;;;;;1.40;0.10;;;8.10;99.90;;;;;;5053485;28;20108;-75
2021/03/09 09:20:49;;;;;;;4.32;0.88;;;7.90;99.90;;;;;;5044535;28;20403;-75
2021/03/09 09:23:18;;;;;;;1.95;0.28;;;7.90;99.90;;;;;;5057317;28;20049;-75
2021/03/09 09:25:46;;;;;;;1.33;0.20;;;7.80;99.90;;;;;;5057524;28;20471;-73
2021/03/09 09:28:43;;;;;;;1.00;0.28;;;7.70;99.90;;;;;;5057291;28;20052;-73
2021/03/09 09:31:10;;;;;;;1.02;0.00;;;7.60;99.90;;;;;;5027858;28;20452;-73
2021/03/09 09:33:36;;;;;;;2.47;0.10;;;7.50;99.90;;;;;;5057504;28;20430;-75
2021/03/09 09:36:03;;;;;;;0.25;0.10;;;7.50;99.90;;;;;;5057055;28;20025;-75
2021/03/09 09:38:28;;;;;;;0.35;0.00;;;7.50;99.90;;;;;;5057035;28;20104;-75
2021/03/09 09:40:56;;;;;;;2.65;0.20;;;7.60;99.90;;;;;;5057239;28;20097;-75
2021/03/09 09:43:24;;;;;;;1.25;0.20;;;7.70;99.90;;;;;;5057168;28;20404;-74
2021/03/09 09:45:54;;;;;;;0.95;0.00;;;7.80;99.90;;;;;;5056855;28;20492;-74
2021/03/09 09:48:26;;;;;;;7.25;0.25;;;7.90;99.90;;;;;;5039037;28;20036;-75
2021/03/09 09:50:54;;;;;;;2.30;0.20;;;7.90;99.90;;;;;;5056985;28;20395;-75
2021/03/09 09:53:33;;;;;;;0.57;0.10;;;7.90;99.90;;;;;;5056768;28;20075;-75
2021/03/09 09:56:03;;;;;;;1.15;0.10;;;7.80;99.90;;;;;;5056817;28;20036;-75
2021/03/09 09:58:50;;;;;;;0.47;0.10;;;7.60;99.90;;;;;;5056619;28;20060;-74
2021/03/09 10:01:15;;;;;;;1.83;0.20;;;7.40;99.90;;;;;;5057183;28;20062;-75
2021/03/09 10:04:01;;;;;;;1.67;0.40;;;7.30;99.90;;;;;;5056629;28;20480;-76
2021/03/09 10:06:47;;;;;;;0.40;0.15;;;7.30;99.90;;;;;;5057043;28;20018;-76
2021/03/09 10:09:18;;;;;;;0.88;0.40;;;7.30;99.90;;;;;;5038661;28;20047;-75
2021/03/09 10:12:04;;;;;;;1.15;0.10;;;7.40;99.90;;;;;;5038912;28;20028;-75
2021/03/09 10:14:36;;;;;;;3.55;0.20;;;7.40;99.90;;;;;;5056520;28;20017;-75
2021/03/09 10:17:03;;;;;;;2.38;0.10;;;7.60;99.90;;;;;;5038706;28;20129;-76
2021/03/09 10:19:39;;;;;;;0.20;0.00;;;7.40;99.90;;;;;;5056469;28;20103;-75
2021/03/09 10:22:17;;;;;;;1.45;0.40;;;7.30;99.90;;;;;;5056342;28;20017;-74
2021/03/09 10:24:42;;;;;;;0.20;0.10;;;7.30;99.90;;;;;;5057180;28;20033;-73
2021/03/09 10:27:20;;;;;;;1.08;0.00;;;7.30;99.90;;;;;;5056189;28;20433;-74
2021/03/09 10:29:46;;;;;;;0.20;0.00;;;7.30;99.90;;;;;;5056479;28;20094;-74
2021/03/09 10:32:16;;;;;;;1.70;0.43;;;7.30;99.90;;;;;;5056391;28;20029;-74
2021/03/09 10:34:57;;;;;;;0.95;0.15;;;7.40;99.90;;;;;;5038508;28;20028;-76
2021/03/09 10:37:39;;;;;;;0.55;0.03;;;7.40;99.90;;;;;;5038102;28;20026;-74
2021/03/09 10:40:08;;;;;;;4.00;0.28;;;7.50;99.90;;;;;;5056629;28;20028;-74
2021/03/09 10:42:50;;;;;;;3.30;0.10;;;7.60;99.90;;;;;;5039020;28;20017;-74
2021/03/09 10:45:16;;;;;;;3.28;0.63;;;7.90;99.90;;;;;;5038881;28;20020;-74
2021/03/09 10:48:02;;;;;;;0.90;0.15;;;8.20;99.90;;;;;;5056083;28;20480;-74
2021/03/09 10:50:38;;;;;;;4.32;0.20;;;8.50;99.90;;;;;;5057007;28;20054;-76
2021/03/09 10:53:03;;;;;;;0.25;0.00;;;8.60;99.90;;;;;;5056102;28;20029;-74
2021/03/09 10:55:29;;;;;;;1.98;0.38;;;8.60;99.90;;;;;;5056530;28;20044;-75
2021/03/09 10:57:55;;;;;;;1.52;0.30;;;8.40;99.90;;;;;;5056315;28;20052;-73
2021/03/09 11:00:22;;;;;;;0.10;0.00;;;8.20;99.90;;;;;;5056463;28;20056;-73
2021/03/09 11:02:48;;;;;;;0.88;0.00;;;8.10;99.90;;;;;;5055571;28;20048;-73
2021/03/09 11:05:14;;;;;;;2.97;0.38;;;8.00;99.90;;;;;;5055638;28;20028;-74
2021/03/09 11:07:40;;;;;;;0.55;0.00;;;7.80;99.90;;;;;;5055630;28;20387;-74
2021/03/09 11:10:07;;;;;;;0.20;0.00;;;7.60;99.90;;;;;;5120416;22;20895;-72
2021/03/09 11:12:33;;;;;;;0.03;0.00;;;7.50;99.90;;;;;;5073264;22;20091;-74
2021/03/09 11:14:59;;;;;;;0.35;0.10;;;7.40;99.90;;;;;;5076017;28;20082;-74
2021/03/09 11:17:25;;;;;;;0.85;0.00;;;7.40;99.90;;;;;;5075663;28;20036;-74
2021/03/09 11:19:51;;;;;;;1.88;0.00;;;7.40;99.90;;;;;;5088515;22;20397;-74
2021/03/09 11:22:17;;;;;;;0.45;0.00;;;7.40;99.90;;;;;;5055508;28;20040;-75
2021/03/09 11:24:43;;;;;;;0.15;0.00;;;7.40;99.90;;;;;;5037608;28;20144;-73
2021/03/09 11:27:09;;;;;;;0.45;0.00;;;7.40;99.90;;;;;;5055686;28;20025;-74
2021/03/09 11:29:36;;;;;;;0.00;0.00;;;7.40;99.90;;;;;;5056033;28;20031;-74
2021/03/09 11:32:02;;;;;;;0.40;0.00;;;7.40;99.90;;;;;;5037501;28;20020;-73
2021/03/09 11:34:27;;;;;;;0.20;0.00;;;7.50;99.90;;;;;;5083462;22;20059;-76
2021/03/09 11:36:54;;;;;;;1.60;0.00;;;7.50;99.90;;;;;;5075141;28;20024;-74
2021/03/09 11:39:20;;;;;;;1.08;0.10;;;7.60;99.90;;;;;;5075515;28;20112;-75
2021/03/09 11:41:48;;;;;;;0.43;0.00;;;7.60;99.90;;;;;;5074588;28;20495;-75
2021/03/09 11:44:14;;;;;;;0.95;0.00;;;7.80;99.90;;;;;;5074488;28;20027;-74
2021/03/09 11:46:40;;;;;;;0.00;0.00;;;7.90;99.90;;;;;;5074501;28;20111;-75
2021/03/09 11:49:08;;;;;;;0.00;0.00;;;8.00;99.90;;;;;;5090188;22;20016;-74
2021/03/09 11:51:34;;;;;;;1.17;0.00;;;10.50;99.90;;;;;;5054827;28;20029;-76
2021/03/09 11:54:03;;;;;;;0.50;0.10;;;8.00;99.90;;;;;;5037828;28;20025;-74
2021/03/09 11:56:28;;;;;;;0.00;0.00;;;8.00;99.90;;;;;;5055979;28;20081;-74
2021/03/09 11:58:54;;;;;;;0.70;0.20;;;7.60;99.90;;;;;;5055715;28;20096;-74
2021/03/09 12:01:20;;;;;;;0.90;0.00;;;7.80;99.90;;;;;;5037655;28;20385;-75
2021/03/09 12:03:46;;;;;;;0.80;0.10;;;7.70;99.90;;;;;;5055529;28;20056;-75
2021/03/09 12:06:13;;;;;;;1.48;0.00;;;7.60;99.90;;;;;;5055349;28;20028;-75
2021/03/09 12:08:39;;;;;;;0.38;0.00;;;7.60;99.90;;;;;;5037471;28;20063;-75
2021/03/09 12:11:04;;;;;;;1.20;0.00;;;7.60;99.90;;;;;;5055244;28;20049;-72
2021/03/09 12:13:30;;;;;;;0.65;0.00;;;7.60;99.90;;;;;;5055532;28;20021;-74
2021/03/09 12:15:58;;;;;;;0.15;0.00;;;7.60;99.90;;;;;;5054620;28;20163;-75
2021/03/09 12:18:24;;;;;;;0.70;0.08;;;9.30;99.90;;;;;;5054947;28;20100;-75
2021/03/09 12:20:49;;;;;;;0.73;0.00;;;7.80;99.90;;;;;;5055446;28;20110;-75
2021/03/09 12:23:15;;;;;;;1.10;0.20;;;7.90;99.90;;;;;;5036302;28;20017;-74
2021/03/09 12:25:40;;;;;;;0.40;0.10;;;8.00;99.90;;;;;;5054120;28;20035;-73
2021/03/09 12:28:07;;;;;;;0.47;0.10;;;8.10;99.90;;;;;;5053937;28;20045;-73
2021/03/09 12:30:33;;;;;;;0.43;0.00;;;8.10;99.90;;;;;;5054061;28;20387;-73
2021/03/09 12:32:58;;;;;;;0.47;0.10;;;8.10;99.90;;;;;;5054114;28;20379;-73
2021/03/09 12:35:25;;;;;;;2.85;0.10;;;8.10;99.90;;;;;;5036039;28;20028;-74
2021/03/09 12:37:53;;;;;;;1.20;0.30;;;8.00;99.90;;;;;;5054684;28;20405;-74
2021/03/09 12:40:19;;;;;;;0.32;0.10;;;7.90;99.90;;;;;;5053730;28;20013;-75
2021/03/09 12:42:44;;;;;;;0.45;0.00;;;7.80;99.90;;;;;;5053965;28;20028;-75
2021/03/09 12:45:11;;;;;;;2.08;0.55;;;7.80;99.90;;;;;;5053559;28;20104;-73
2021/03/09 12:47:37;;;;;;;0.90;0.20;;;7.60;99.90;;;;;;5053927;28;20043;-75
2021/03/09 12:50:04;;;;;;;1.52;0.60;;;7.60;99.90;;;;;;5053989;28;20484;-75
2021/03/09 12:52:29;;;;;;;3.28;0.40;;;7.50;99.90;;;;;;5053569;28;20112;-74
2021/03/09 12:54:55;;;;;;;0.60;0.10;;;7.50;99.90;;;;;;5053688;28;20152;-73
2021/03/09 12:57:21;;;;;;;0.82;0.28;;;7.50;99.90;;;;;;5053737;28;20045;-73
2021/03/09 12:59:47;;;;;;;1.75;0.50;;;7.40;99.90;;;;;;5053611;28;20115;-73
2021/03/09 13:02:12;;;;;;;0.80;0.43;;;7.50;99.90;;;;;;5053679;28;20139;-73
2021/03/09 13:04:38;;;;;;;1.15;0.40;;;7.50;99.90;;;;;;5053639;28;20023;-74